createdAt,value
2022-07-27T00:00:27.580Z,101125.63
2022-07-27T00:05:29.312Z,101118.63
2022-07-27T00:10:31.130Z,101127.41
2022-07-27T00:15:34.019Z,101123.09
2022-07-27T00:20:36.178Z,101117.84
2022-07-27T00:25:37.972Z,101116.97
2022-07-27T00:30:39.848Z,101119.63
2022-07-27T00:35:41.739Z,101127.50
2022-07-27T00:40:43.541Z,101119.66
2022-07-27T00:45:45.255Z,101117.94
2022-07-27T00:50:47.073Z,101125.81
2022-07-27T00:55:48.878Z,101126.69
2022-07-27T01:00:50.573Z,101132.84
2022-07-27T01:05:52.428Z,101130.19
2022-07-27T01:10:55.398Z,101131.97
2022-07-27T01:15:57.263Z,101131.97
2022-07-27T01:20:59.908Z,101131.94
2022-07-27T01:26:01.883Z,101130.22
2022-07-27T01:31:03.704Z,101133.69
2022-07-27T01:36:05.576Z,101138.94
2022-07-27T01:41:07.292Z,101141.59
2022-07-27T01:46:09.195Z,101138.06
2022-07-27T01:51:11.050Z,101126.69
2022-07-27T01:56:12.993Z,101129.34
2022-07-27T02:01:14.821Z,101127.59
2022-07-27T02:06:16.580Z,101132.81
2022-07-27T02:11:36.744Z,101131.91
2022-07-27T02:16:38.644Z,101128.44
2022-07-27T02:21:40.721Z,101129.28
2022-07-27T02:26:42.988Z,101128.34
2022-07-27T02:31:46.514Z,101126.63
2022-07-27T02:36:48.227Z,101127.50
2022-07-27T02:41:49.940Z,101129.22
2022-07-27T02:46:51.987Z,101127.47
2022-07-27T02:51:54.162Z,101123.09
2022-07-27T02:56:56.016Z,101128.31
2022-07-27T03:01:57.856Z,101131.78
2022-07-27T03:06:59.629Z,101125.63
2022-07-27T03:12:01.959Z,101129.13
2022-07-27T03:17:03.649Z,101123.84
2022-07-27T03:22:05.321Z,101129.06
2022-07-27T03:27:06.990Z,101129.94
2022-07-27T03:32:09.909Z,101134.25
2022-07-27T03:37:11.678Z,101133.41
2022-07-27T03:42:13.453Z,101137.72
2022-07-27T03:47:15.128Z,101144.72
2022-07-27T03:52:17.966Z,101152.53
2022-07-27T03:57:19.760Z,101154.31
2022-07-27T04:02:21.472Z,101154.31
2022-07-27T04:07:23.176Z,101150.75
2022-07-27T04:12:24.900Z,101150.75
2022-07-27T04:17:55.178Z,101147.25
2022-07-27T04:22:48.759Z,101148.16
2022-07-27T04:27:50.448Z,101148.19
2022-07-27T04:32:52.380Z,101144.75
2022-07-27T04:37:59.128Z,101149.13
2022-07-27T04:43:02.310Z,101150.88
2022-07-27T04:48:06.341Z,101147.38
2022-07-27T04:53:08.631Z,101149.94
2022-07-27T04:58:10.631Z,101143.91
2022-07-27T05:03:12.358Z,101157.84
2022-07-27T05:08:14.042Z,101157.88
2022-07-27T05:13:15.748Z,101154.41
2022-07-27T05:18:18.865Z,101157.94
2022-07-27T05:23:20.606Z,101162.25
2022-07-27T05:28:22.287Z,101162.28
2022-07-27T05:33:23.946Z,101164.06
2022-07-27T05:38:25.642Z,101170.22
2022-07-27T05:43:28.375Z,101174.63
2022-07-27T05:48:30.122Z,101183.38
2022-07-27T05:53:31.796Z,101190.44
2022-07-27T05:58:33.533Z,101201.88
2022-07-27T06:03:36.397Z,101203.63
2022-07-27T06:08:38.116Z,101198.41
2022-07-27T06:13:42.121Z,101215.06
2022-07-27T06:18:44.163Z,101217.69
2022-07-27T06:23:48.356Z,101223.84
2022-07-27T06:28:50.069Z,101229.97
2022-07-27T06:33:53.728Z,101227.31
2022-07-27T06:38:57.031Z,101229.94
2022-07-27T06:43:58.713Z,101226.44
2022-07-27T06:49:00.529Z,101236.94
2022-07-27T06:54:02.283Z,101235.19
2022-07-27T06:59:03.959Z,101224.63
2022-07-27T07:04:05.742Z,101229.88
2022-07-27T07:09:09.077Z,101218.47
2022-07-27T07:14:11.197Z,101222.81
2022-07-27T07:19:13.266Z,101221.91
2022-07-27T07:24:15.150Z,101226.25
2022-07-27T07:29:16.838Z,101228.78
2022-07-27T07:34:18.540Z,101233.13
2022-07-27T07:39:20.241Z,101234.81
2022-07-27T07:44:22.321Z,101243.66
2022-07-27T07:49:39.259Z,101233.94
2022-07-27T07:54:41.789Z,101240.91
2022-07-27T07:59:43.489Z,101247.94
2022-07-27T08:04:45.176Z,101252.25
2022-07-27T08:09:46.855Z,101250.56
2022-07-27T08:14:48.531Z,101236.34
2022-07-27T08:19:50.210Z,101245.88
2022-07-27T08:24:51.925Z,101250.38
2022-07-27T08:29:53.804Z,101237.81
2022-07-27T08:34:56.757Z,101253.69
2022-07-27T08:45:20.798Z,101246.72
2022-07-27T08:50:25.787Z,101246.56
2022-07-27T08:55:28.497Z,101241.25
2022-07-27T09:00:30.710Z,101236.00
2022-07-27T09:05:37.627Z,101219.09
2022-07-27T09:10:40.250Z,101223.13
2022-07-27T09:16:15.600Z,101222.34
2022-07-27T09:21:21.204Z,101216.94
2022-07-27T09:26:33.943Z,101223.97
2022-07-27T09:31:47.409Z,101220.91
2022-07-27T09:36:51.079Z,101210.06
2022-07-27T09:41:55.536Z,101213.50
2022-07-27T09:46:57.353Z,101213.50
2022-07-27T09:52:01.619Z,101213.44
2022-07-27T09:57:04.453Z,101205.50
2022-07-27T10:02:06.195Z,101202.91
2022-07-27T10:07:12.863Z,101201.25
2022-07-27T10:12:15.349Z,101200.91
2022-07-27T10:17:17.483Z,101197.69
2022-07-27T10:22:54.047Z,101197.53
2022-07-27T10:28:18.498Z,101208.13
2022-07-27T10:33:42.594Z,101215.16
2022-07-27T10:38:56.418Z,101216.78
2022-07-27T10:44:22.328Z,101210.16
2022-07-27T10:49:40.408Z,101208.53
2022-07-27T10:54:46.811Z,101229.13
2022-07-27T11:00:07.878Z,101210.63
2022-07-27T11:05:57.937Z,101214.84
2022-07-27T11:10:43.077Z,101208.94
2022-07-27T11:16:04.544Z,101198.53
2022-07-27T11:21:27.318Z,101200.53
2022-07-27T11:26:31.103Z,101205.41
2022-07-27T11:31:53.900Z,101211.16
2022-07-27T11:36:54.482Z,101202.13
2022-07-27T11:42:11.717Z,101193.69
2022-07-27T11:47:17.717Z,101188.53
2022-07-27T11:52:19.439Z,101187.00
2022-07-27T11:57:22.527Z,101204.34
2022-07-27T12:02:27.041Z,101195.53
2022-07-27T12:07:30.168Z,101195.44
2022-07-27T12:12:32.697Z,101204.69
2022-07-27T12:17:38.199Z,101196.00
2022-07-27T12:22:47.305Z,101187.59
2022-07-27T12:27:58.912Z,101189.94
2022-07-27T12:33:00.928Z,101199.41
2022-07-27T12:38:07.003Z,101203.38
2022-07-27T12:43:09.769Z,101186.59
2022-07-27T12:48:13.302Z,101187.03
2022-07-27T12:53:15.866Z,101192.09
2022-07-27T12:58:17.604Z,101181.06
2022-07-27T13:03:19.287Z,101191.13
2022-07-27T13:08:20.973Z,101181.25
2022-07-27T13:13:25.068Z,101180.13
2022-07-27T13:18:26.843Z,101173.31
2022-07-27T13:23:29.446Z,101173.38
2022-07-27T13:28:31.183Z,101182.66
2022-07-27T13:33:32.865Z,101184.84
2022-07-27T13:38:34.565Z,101205.38
2022-07-27T13:43:36.216Z,101189.50
2022-07-27T13:48:37.931Z,101202.47
2022-07-27T13:53:39.663Z,101178.88
2022-07-27T13:58:41.384Z,101190.97
2022-07-27T14:03:43.049Z,101186.31
2022-07-27T14:08:46.971Z,101191.50
2022-07-27T14:13:48.708Z,101199.25
2022-07-27T14:18:50.833Z,101180.69
2022-07-27T14:23:52.521Z,101184.53
2022-07-27T14:28:54.737Z,101196.00
2022-07-27T14:33:56.416Z,101197.19
2022-07-27T14:38:58.105Z,101185.69
2022-07-27T14:43:59.773Z,101187.59
2022-07-27T14:49:06.486Z,101172.41
2022-07-27T14:54:08.520Z,101173.56
2022-07-27T14:59:10.623Z,101177.06
2022-07-27T15:04:13.073Z,101186.19
2022-07-27T15:09:15.205Z,101172.25
2022-07-27T15:14:17.105Z,101173.47
2022-07-27T15:19:18.803Z,101175.47
2022-07-27T15:24:20.489Z,101174.38
2022-07-27T15:29:22.559Z,101171.78
2022-07-27T15:34:24.212Z,101176.38
2022-07-27T15:39:25.878Z,101161.50
2022-07-27T15:44:27.624Z,101169.66
2022-07-27T15:49:29.377Z,101169.38
2022-07-27T15:54:33.864Z,101171.47
2022-07-27T15:59:36.585Z,101182.97
2022-07-27T16:04:38.264Z,101187.50
2022-07-27T16:09:39.941Z,101182.34
2022-07-27T16:14:41.609Z,101194.00
2022-07-27T16:19:43.436Z,101180.25
2022-07-27T16:24:45.157Z,101174.78
2022-07-27T16:29:46.841Z,101173.31
2022-07-27T16:34:48.552Z,101175.06
2022-07-27T16:39:50.297Z,101175.16
2022-07-27T16:44:51.986Z,101167.03
2022-07-27T16:49:53.764Z,101176.69
2022-07-27T16:54:55.612Z,101170.50
2022-07-27T16:59:57.341Z,101169.81
2022-07-27T17:04:59.731Z,101178.50
2022-07-27T17:10:01.497Z,101180.44
2022-07-27T17:15:03.556Z,101170.63
2022-07-27T17:20:05.861Z,101169.81
2022-07-27T17:25:07.687Z,101180.44
2022-07-27T17:30:09.816Z,101178.47
2022-07-27T17:35:11.507Z,101166.84
2022-07-27T17:40:14.158Z,101177.19
2022-07-27T17:45:15.930Z,101172.72
2022-07-27T17:50:17.654Z,101168.56
2022-07-27T17:55:19.348Z,101175.31
2022-07-27T18:00:21.057Z,101176.69
2022-07-27T18:05:22.779Z,101167.25
2022-07-27T18:10:24.560Z,101166.81
2022-07-27T18:15:45.075Z,101169.19
2022-07-27T18:20:48.205Z,101171.94
2022-07-27T18:25:50.048Z,101173.09
2022-07-27T18:30:52.775Z,101178.94
2022-07-27T18:35:54.614Z,101184.19
2022-07-27T18:40:59.288Z,101177.56
2022-07-27T18:47:16.027Z,101183.66
2022-07-27T18:52:17.824Z,101181.31
2022-07-27T18:57:20.278Z,101183.19
2022-07-27T19:02:23.508Z,101191.38
2022-07-27T19:07:25.254Z,101200.53
2022-07-27T19:12:29.591Z,101192.88
2022-07-27T19:17:31.279Z,101198.38
2022-07-27T19:22:32.975Z,101214.50
2022-07-27T19:27:38.263Z,101219.25
2022-07-27T19:32:40.337Z,101225.75
2022-07-27T19:37:42.048Z,101232.22
2022-07-27T19:42:43.776Z,101226.31
2022-07-27T19:47:45.629Z,101243.16
2022-07-27T19:52:48.856Z,101250.47
2022-07-27T19:57:50.644Z,101250.66
2022-07-27T20:02:52.745Z,101259.63
2022-07-27T20:07:54.566Z,101267.81
2022-07-27T20:12:56.363Z,101273.16
2022-07-27T20:17:58.352Z,101268.06
2022-07-27T20:23:00.128Z,101276.06
2022-07-27T20:28:02.993Z,101275.31
2022-07-27T20:33:04.752Z,101292.13
2022-07-27T20:38:09.684Z,101292.22
2022-07-27T20:43:11.512Z,101302.88
2022-07-27T20:48:13.169Z,101295.03
2022-07-27T20:53:14.880Z,101296.84
2022-07-27T20:58:16.589Z,101309.22
2022-07-27T21:03:18.393Z,101310.13
2022-07-27T21:08:20.104Z,101303.13
2022-07-27T21:13:21.806Z,101311.97
2022-07-27T21:18:23.504Z,101323.38
2022-07-27T21:23:43.808Z,101323.41
2022-07-27T21:28:45.946Z,101335.72
2022-07-27T21:33:47.994Z,101333.16
2022-07-27T21:38:49.876Z,101340.19
2022-07-27T21:43:52.140Z,101334.97
2022-07-27T21:48:54.039Z,101337.63
2022-07-27T21:53:56.786Z,101346.38
2022-07-27T21:58:58.495Z,101348.16
2022-07-27T22:04:00.392Z,101347.28
2022-07-27T22:09:02.280Z,101354.28
2022-07-27T22:14:04.034Z,101346.44
2022-07-27T22:19:05.712Z,101349.94
2022-07-27T22:24:07.394Z,101352.56
2022-07-27T22:29:09.131Z,101356.03
2022-07-27T22:34:11.240Z,101363.91
2022-07-27T22:39:13.327Z,101363.88
2022-07-27T22:44:15.963Z,101363.00
2022-07-27T22:49:22.945Z,101365.63
2022-07-27T22:54:24.804Z,101367.34
2022-07-27T22:59:26.568Z,101368.22
2022-07-27T23:04:28.262Z,101369.94
2022-07-27T23:09:29.958Z,101373.41
2022-07-27T23:14:31.633Z,101372.53
2022-07-27T23:19:33.293Z,101376.03
2022-07-27T23:24:34.986Z,101365.50
2022-07-27T23:29:36.699Z,101368.97
2022-07-27T23:34:38.473Z,101367.19
2022-07-27T23:39:40.579Z,101368.03
2022-07-27T23:44:42.399Z,101368.91
2022-07-27T23:49:44.077Z,101365.41
2022-07-27T23:54:45.852Z,101369.75
2022-07-27T23:59:47.526Z,101365.38
